Irving, TX (75014)

2:51 PM CDT on August 30, 2016 (GMT -0500)
Toler Lane, Irving, Texas USA | | Change Station

Elev 551 ft 32.84 °N, 96.96 °W | Updated 1 second ago

Mostly Cloudy
Mostly Cloudy
95.0 °F
Feels Like 107 °F
N
1.2
Wind Variable Wind from East
Gusts 1.2 mph

Today
High -- | Low -- °F
--% Chance of Precip.
Yesterday
High -- | Low -- °F
Precip. -- in
Pressure 29.99 in
Visibility 10.0 miles
Clouds Scattered Clouds 5000 ft
Scattered Clouds 8000 ft
Mostly Cloudy 15000 ft
Mostly Cloudy 25000 ft
Heat Index 107 °F
Dew Point 75 °F
Humidity 53%
Rainfall 0.00 in
Snow Depth Not available.
7:01 AM 7:54 PM
Waning Crescent, 3% visible
METAR KDFW 301853Z 06007KT 360V080 10SM SCT050TCU SCT080 BKN150 BKN250 34/21 A3002 RMK AO2 LTG DSNT W-NE SLP156 CB DSNT W MOV W TCU ALQDS T03390211
Pressure 29.99 in
Visibility 10.0 miles
Clouds Scattered Clouds 5000 ft
Scattered Clouds 8000 ft
Mostly Cloudy 15000 ft
Mostly Cloudy 25000 ft
Heat Index 107 °F
Dew Point 75 °F
Humidity 53%
Rainfall 0.00 in
Snow Depth Not available.
7:01 AM 7:54 PM
Waning Crescent, 3% visible
METAR KDFW 301853Z 06007KT 360V080 10SM SCT050TCU SCT080 BKN150 BKN250 34/21 A3002 RMK AO2 LTG DSNT W-NE SLP156 CB DSNT W MOV W TCU ALQDS T03390211

10-Day Weather Forecast

Almanac

Astronomy

Aug. 30, 2016 Rise Set
Actual Time
Civil Twilight
Nautical Twilight
Astronomical Twilight
Moon
Length of Visible Light
Length of Day
Tomorrow will be .
, % of the Moon is Illuminated

Today's Extremes

State Highs State Lows

Community

WunderPhotos

Upload Photos

1,935,883 photos uploaded!

WunderBlog® & News

Nearby

Air Quality

  Air Quality AQ Index Pollutant
Not available.

Snow Depth

Station Depth Elevation

Earthquake Activity

City Distance Mag. Time & Date
Minimum magnitude displayed is 2.5.

Coastal Water Temperatures

Place Temperature

Stations

Nearby Weather Stations

Station Location Temp. Windchill Dew Point Humidity Wind Precip. Elev Updated Type
                   

Watches & Warnings

There are currently no watches in effect.